Calcasieu, Louisiana
Current Conditions -  °F | °C
As of 11:15 AM on Sunday 21 Dec 2014 (Local Time) from KACP Reporting Station
Haze Haze  
Wind Chill: 49°   Ceiling: 300
Heat Index: 49°   Visibility: 5mi
Dew Point: 47°   Wind: 0mph
Humidity: 93%   Direction: NA
Pressure: 30.12"   Gusts: NA
Location:  30.9922°N, 92.6266°W
Report Text: KACP 211715Z AUTO 00000KT 5SM BR OVC003 09/08 A3012 RMK AO2 T00930082
Loading
Personal Weather Stations






























Interactive Weather Map New forecast layout! Learn more

10-Day Weather Forecast

Advertisements
Track Severe Weather on mobile